sensor_id;sensor_type;location;lat;lon;timestamp;temperature;humidity
18126;DHT22;53956;52.442;13.284;2022-12-05T00:01:15;5.40;99.90
18126;DHT22;53956;52.442;13.284;2022-12-05T00:03:43;5.80;99.90
18126;DHT22;53956;52.442;13.284;2022-12-05T00:06:09;5.50;99.90
18126;DHT22;53956;52.442;13.284;2022-12-05T00:08:36;5.60;99.90
18126;DHT22;53956;52.442;13.284;2022-12-05T00:11:10;5.60;99.90
18126;DHT22;53956;52.442;13.284;2022-12-05T00:13:36;5.60;99.90
18126;DHT22;53956;52.442;13.284;2022-12-05T00:16:06;5.60;99.90
18126;DHT22;53956;52.442;13.284;2022-12-05T00:18:34;5.40;99.90
18126;DHT22;53956;52.442;13.284;2022-12-05T00:21:00;5.70;99.90
18126;DHT22;53956;52.442;13.284;2022-12-05T00:23:27;5.60;99.90
18126;DHT22;53956;52.442;13.284;2022-12-05T00:25:54;5.80;99.90
18126;DHT22;53956;52.442;13.284;2022-12-05T00:28:22;5.70;99.90
18126;DHT22;53956;52.442;13.284;2022-12-05T00:30:48;5.80;99.90
18126;DHT22;53956;52.442;13.284;2022-12-05T00:33:15;5.90;99.90
18126;DHT22;53956;52.442;13.284;2022-12-05T00:35:42;5.70;99.90
18126;DHT22;53956;52.442;13.284;2022-12-05T00:38:08;5.70;99.90
18126;DHT22;53956;52.442;13.284;2022-12-05T00:40:35;5.80;99.90
18126;DHT22;53956;52.442;13.284;2022-12-05T00:43:02;5.90;99.90
18126;DHT22;53956;52.442;13.284;2022-12-05T00:45:30;5.70;99.90
18126;DHT22;53956;52.442;13.284;2022-12-05T00:47:57;5.70;99.90
18126;DHT22;53956;52.442;13.284;2022-12-05T00:50:23;5.70;99.90
18126;DHT22;53956;52.442;13.284;2022-12-05T00:52:50;5.70;99.90
18126;DHT22;53956;52.442;13.284;2022-12-05T00:55:17;5.70;99.90
18126;DHT22;53956;52.442;13.284;2022-12-05T00:57:44;5.60;99.90
18126;DHT22;53956;52.442;13.284;2022-12-05T01:00:11;5.60;99.90
18126;DHT22;53956;52.442;13.284;2022-12-05T01:02:39;5.80;99.90
18126;DHT22;53956;52.442;13.284;2022-12-05T01:05:06;5.90;99.90
18126;DHT22;53956;52.442;13.284;2022-12-05T01:07:33;5.80;99.90
18126;DHT22;53956;52.442;13.284;2022-12-05T01:10:00;5.90;99.90
18126;DHT22;53956;52.442;13.284;2022-12-05T01:12:26;5.70;99.90
18126;DHT22;53956;52.442;13.284;2022-12-05T01:14:53;5.70;99.90
18126;DHT22;53956;52.442;13.284;2022-12-05T01:17:20;5.90;99.90
18126;DHT22;53956;52.442;13.284;2022-12-05T01:19:48;5.80;99.90
18126;DHT22;53956;52.442;13.284;2022-12-05T01:22:15;5.70;99.90
18126;DHT22;53956;52.442;13.284;2022-12-05T01:24:42;5.40;99.90
18126;DHT22;53956;52.442;13.284;2022-12-05T01:27:08;5.60;99.90
18126;DHT22;53956;52.442;13.284;2022-12-05T01:29:35;5.40;99.90
18126;DHT22;53956;52.442;13.284;2022-12-05T01:32:02;5.60;99.90
18126;DHT22;53956;52.442;13.284;2022-12-05T01:34:29;5.80;99.90
18126;DHT22;53956;52.442;13.284;2022-12-05T01:36:57;5.60;99.90
18126;DHT22;53956;52.442;13.284;2022-12-05T01:39:23;5.60;99.90
18126;DHT22;53956;52.442;13.284;2022-12-05T01:41:50;5.60;99.90
18126;DHT22;53956;52.442;13.284;2022-12-05T01:47:22;5.50;99.90
18126;DHT22;53956;52.442;13.284;2022-12-05T01:49:49;5.50;99.90
18126;DHT22;53956;52.442;13.284;2022-12-05T01:52:20;5.60;99.90
18126;DHT22;53956;52.442;13.284;2022-12-05T01:54:50;5.70;99.90
18126;DHT22;53956;52.442;13.284;2022-12-05T01:57:20;5.50;99.90
18126;DHT22;53956;52.442;13.284;2022-12-05T01:59:50;5.70;99.90
18126;DHT22;53956;52.442;13.284;2022-12-05T02:02:18;5.50;99.90
18126;DHT22;53956;52.442;13.284;2022-12-05T02:04:50;5.70;99.90
18126;DHT22;53956;52.442;13.284;2022-12-05T02:07:19;5.80;99.90
18126;DHT22;53956;52.442;13.284;2022-12-05T02:09:47;5.80;99.90
18126;DHT22;53956;52.442;13.284;2022-12-05T02:12:14;5.70;99.90
18126;DHT22;53956;52.442;13.284;2022-12-05T02:14:48;5.60;99.90
18126;DHT22;53956;52.442;13.284;2022-12-05T02:17:22;5.40;99.90
18126;DHT22;53956;52.442;13.284;2022-12-05T02:20:11;5.40;99.90
18126;DHT22;53956;52.442;13.284;2022-12-05T02:26:09;5.50;99.90
18126;DHT22;53956;52.442;13.284;2022-12-05T02:29:03;5.50;99.90
18126;DHT22;53956;52.442;13.284;2022-12-05T02:31:39;5.60;99.90
18126;DHT22;53956;52.442;13.284;2022-12-05T02:34:15;5.60;99.90
18126;DHT22;53956;52.442;13.284;2022-12-05T02:36:47;5.80;99.90
18126;DHT22;53956;52.442;13.284;2022-12-05T02:39:23;5.60;99.90
18126;DHT22;53956;52.442;13.284;2022-12-05T02:41:57;5.50;99.90
18126;DHT22;53956;52.442;13.284;2022-12-05T02:44:31;5.60;99.90
18126;DHT22;53956;52.442;13.284;2022-12-05T02:47:01;5.50;99.90
18126;DHT22;53956;52.442;13.284;2022-12-05T02:49:31;5.70;99.90
18126;DHT22;53956;52.442;13.284;2022-12-05T02:52:02;5.70;99.90
18126;DHT22;53956;52.442;13.284;2022-12-05T02:54:32;5.60;99.90
18126;DHT22;53956;52.442;13.284;2022-12-05T02:57:01;5.50;99.90
18126;DHT22;53956;52.442;13.284;2022-12-05T02:59:28;5.50;99.90
18126;DHT22;53956;52.442;13.284;2022-12-05T03:01:55;5.70;99.90
18126;DHT22;53956;52.442;13.284;2022-12-05T03:04:24;5.40;99.90
18126;DHT22;53956;52.442;13.284;2022-12-05T03:06:53;5.60;99.90
18126;DHT22;53956;52.442;13.284;2022-12-05T03:09:24;5.60;99.90
18126;DHT22;53956;52.442;13.284;2022-12-05T03:12:00;5.60;99.90
18126;DHT22;53956;52.442;13.284;2022-12-05T03:14:31;5.50;99.90
18126;DHT22;53956;52.442;13.284;2022-12-05T03:17:01;6.00;99.90
18126;DHT22;53956;52.442;13.284;2022-12-05T03:19:33;5.70;99.90
18126;DHT22;53956;52.442;13.284;2022-12-05T03:22:06;5.80;99.90
18126;DHT22;53956;52.442;13.284;2022-12-05T03:24:37;5.70;99.90
18126;DHT22;53956;52.442;13.284;2022-12-05T03:27:10;5.80;99.90
18126;DHT22;53956;52.442;13.284;2022-12-05T03:29:43;5.70;99.90
18126;DHT22;53956;52.442;13.284;2022-12-05T03:32:19;5.70;99.90
18126;DHT22;53956;52.442;13.284;2022-12-05T03:34:57;5.70;99.90
18126;DHT22;53956;52.442;13.284;2022-12-05T03:37:35;5.80;99.90
18126;DHT22;53956;52.442;13.284;2022-12-05T03:40:07;5.70;99.90
18126;DHT22;53956;52.442;13.284;2022-12-05T03:42:39;5.80;99.90
18126;DHT22;53956;52.442;13.284;2022-12-05T03:45:10;5.70;99.90
18126;DHT22;53956;52.442;13.284;2022-12-05T03:47:43;5.70;99.90
18126;DHT22;53956;52.442;13.284;2022-12-05T03:50:18;5.70;99.90
18126;DHT22;53956;52.442;13.284;2022-12-05T03:52:49;5.80;99.90
18126;DHT22;53956;52.442;13.284;2022-12-05T03:55:18;5.80;99.90
18126;DHT22;53956;52.442;13.284;2022-12-05T03:57:51;5.80;99.90
18126;DHT22;53956;52.442;13.284;2022-12-05T04:00:21;5.80;99.90
18126;DHT22;53956;52.442;13.284;2022-12-05T04:02:53;5.90;99.90
18126;DHT22;53956;52.442;13.284;2022-12-05T04:05:25;5.90;99.90
18126;DHT22;53956;52.442;13.284;2022-12-05T04:07:57;5.60;99.90
18126;DHT22;53956;52.442;13.284;2022-12-05T04:10:28;5.50;99.90
18126;DHT22;53956;52.442;13.284;2022-12-05T04:12:59;5.70;99.90
18126;DHT22;53956;52.442;13.284;2022-12-05T04:15:46;5.80;99.90
18126;DHT22;53956;52.442;13.284;2022-12-05T04:18:31;5.80;99.90
18126;DHT22;53956;52.442;13.284;2022-12-05T04:21:02;5.80;99.90
18126;DHT22;53956;52.442;13.284;2022-12-05T04:23:47;5.80;99.90
18126;DHT22;53956;52.442;13.284;2022-12-05T04:26:35;5.70;99.90
18126;DHT22;53956;52.442;13.284;2022-12-05T04:29:07;5.80;99.90
18126;DHT22;53956;52.442;13.284;2022-12-05T04:31:40;5.70;99.90
18126;DHT22;53956;52.442;13.284;2022-12-05T04:34:11;5.80;99.90
18126;DHT22;53956;52.442;13.284;2022-12-05T04:36:42;5.80;99.90
18126;DHT22;53956;52.442;13.284;2022-12-05T04:39:15;6.10;99.90
18126;DHT22;53956;52.442;13.284;2022-12-05T04:41:47;5.90;99.90
18126;DHT22;53956;52.442;13.284;2022-12-05T04:44:19;6.00;99.90
18126;DHT22;53956;52.442;13.284;2022-12-05T04:46:47;5.80;99.90
18126;DHT22;53956;52.442;13.284;2022-12-05T04:49:19;6.00;99.90
18126;DHT22;53956;52.442;13.284;2022-12-05T04:51:49;5.90;99.90
18126;DHT22;53956;52.442;13.284;2022-12-05T04:54:20;5.90;99.90
18126;DHT22;53956;52.442;13.284;2022-12-05T04:56:49;5.90;99.90
18126;DHT22;53956;52.442;13.284;2022-12-05T04:59:17;5.90;99.90
18126;DHT22;53956;52.442;13.284;2022-12-05T05:01:48;5.70;99.90
18126;DHT22;53956;52.442;13.284;2022-12-05T05:04:18;5.80;99.90
18126;DHT22;53956;52.442;13.284;2022-12-05T05:06:48;5.70;99.90
18126;DHT22;53956;52.442;13.284;2022-12-05T05:09:15;5.80;99.90
18126;DHT22;53956;52.442;13.284;2022-12-05T05:11:41;5.90;99.90
18126;DHT22;53956;52.442;13.284;2022-12-05T05:14:08;5.90;99.90
18126;DHT22;53956;52.442;13.284;2022-12-05T05:16:36;6.00;99.90
18126;DHT22;53956;52.442;13.284;2022-12-05T05:19:04;5.80;99.90
18126;DHT22;53956;52.442;13.284;2022-12-05T05:21:32;5.80;99.90
18126;DHT22;53956;52.442;13.284;2022-12-05T05:24:01;5.50;99.90
18126;DHT22;53956;52.442;13.284;2022-12-05T05:26:29;5.70;99.90
18126;DHT22;53956;52.442;13.284;2022-12-05T05:28:57;5.70;99.90
18126;DHT22;53956;52.442;13.284;2022-12-05T05:31:24;5.70;99.90
18126;DHT22;53956;52.442;13.284;2022-12-05T05:33:52;5.90;99.90
18126;DHT22;53956;52.442;13.284;2022-12-05T05:36:20;6.00;99.90
18126;DHT22;53956;52.442;13.284;2022-12-05T05:38:49;5.80;99.90
18126;DHT22;53956;52.442;13.284;2022-12-05T05:41:19;5.80;99.90
18126;DHT22;53956;52.442;13.284;2022-12-05T05:43:46;5.80;99.90
18126;DHT22;53956;52.442;13.284;2022-12-05T05:46:14;5.80;99.90
18126;DHT22;53956;52.442;13.284;2022-12-05T05:48:41;5.70;99.90
18126;DHT22;53956;52.442;13.284;2022-12-05T05:51:10;5.40;99.90
18126;DHT22;53956;52.442;13.284;2022-12-05T05:53:37;5.50;99.90
18126;DHT22;53956;52.442;13.284;2022-12-05T05:56:06;5.70;99.90
18126;DHT22;53956;52.442;13.284;2022-12-05T05:58:34;5.80;99.90
18126;DHT22;53956;52.442;13.284;2022-12-05T06:01:03;5.70;99.90
18126;DHT22;53956;52.442;13.284;2022-12-05T06:03:30;5.80;99.90
18126;DHT22;53956;52.442;13.284;2022-12-05T06:05:57;5.90;99.90
18126;DHT22;53956;52.442;13.284;2022-12-05T06:08:24;5.60;99.90
18126;DHT22;53956;52.442;13.284;2022-12-05T06:10:50;5.50;99.90
18126;DHT22;53956;52.442;13.284;2022-12-05T06:13:17;5.90;99.90
18126;DHT22;53956;52.442;13.284;2022-12-05T06:15:45;5.80;99.90
18126;DHT22;53956;52.442;13.284;2022-12-05T06:18:12;5.80;99.90
18126;DHT22;53956;52.442;13.284;2022-12-05T06:20:39;5.70;99.90
18126;DHT22;53956;52.442;13.284;2022-12-05T06:23:05;5.70;99.90
18126;DHT22;53956;52.442;13.284;2022-12-05T06:25:32;5.80;99.90
18126;DHT22;53956;52.442;13.284;2022-12-05T06:27:59;5.90;99.90
18126;DHT22;53956;52.442;13.284;2022-12-05T06:30:26;5.90;99.90
18126;DHT22;53956;52.442;13.284;2022-12-05T06:32:54;5.90;99.90
18126;DHT22;53956;52.442;13.284;2022-12-05T06:35:20;6.00;99.90
18126;DHT22;53956;52.442;13.284;2022-12-05T06:37:47;5.90;99.90
18126;DHT22;53956;52.442;13.284;2022-12-05T06:40:14;6.10;99.90
18126;DHT22;53956;52.442;13.284;2022-12-05T06:42:41;6.10;99.90
18126;DHT22;53956;52.442;13.284;2022-12-05T06:45:08;6.10;99.90
18126;DHT22;53956;52.442;13.284;2022-12-05T06:47:35;6.00;99.90
18126;DHT22;53956;52.442;13.284;2022-12-05T06:50:03;6.00;99.90
18126;DHT22;53956;52.442;13.284;2022-12-05T06:52:30;6.00;99.90
18126;DHT22;53956;52.442;13.284;2022-12-05T06:54:57;5.90;99.90
18126;DHT22;53956;52.442;13.284;2022-12-05T06:57:24;5.90;99.90
18126;DHT22;53956;52.442;13.284;2022-12-05T06:59:53;5.90;99.90
18126;DHT22;53956;52.442;13.284;2022-12-05T07:02:40;5.70;99.90
18126;DHT22;53956;52.442;13.284;2022-12-05T07:05:08;5.90;99.90
18126;DHT22;53956;52.442;13.284;2022-12-05T07:07:35;5.90;99.90
18126;DHT22;53956;52.442;13.284;2022-12-05T07:10:02;5.90;99.90
18126;DHT22;53956;52.442;13.284;2022-12-05T07:12:31;6.00;99.90
18126;DHT22;53956;52.442;13.284;2022-12-05T07:14:58;5.90;99.90
18126;DHT22;53956;52.442;13.284;2022-12-05T07:17:26;5.90;99.90
18126;DHT22;53956;52.442;13.284;2022-12-05T07:19:53;6.10;99.90
18126;DHT22;53956;52.442;13.284;2022-12-05T07:22:22;5.90;99.90
18126;DHT22;53956;52.442;13.284;2022-12-05T07:24:50;6.10;99.90
18126;DHT22;53956;52.442;13.284;2022-12-05T07:27:17;6.20;99.90
18126;DHT22;53956;52.442;13.284;2022-12-05T07:29:44;5.90;99.90
18126;DHT22;53956;52.442;13.284;2022-12-05T07:32:10;6.00;99.90
18126;DHT22;53956;52.442;13.284;2022-12-05T07:34:37;6.10;99.90
18126;DHT22;53956;52.442;13.284;2022-12-05T07:37:04;6.20;99.90
18126;DHT22;53956;52.442;13.284;2022-12-05T07:39:32;6.30;99.90
18126;DHT22;53956;52.442;13.284;2022-12-05T07:41:58;6.10;99.90
18126;DHT22;53956;52.442;13.284;2022-12-05T07:44:25;5.90;99.90
18126;DHT22;53956;52.442;13.284;2022-12-05T07:46:52;5.90;99.90
18126;DHT22;53956;52.442;13.284;2022-12-05T07:49:18;5.90;99.90
18126;DHT22;53956;52.442;13.284;2022-12-05T07:51:45;5.90;99.90
18126;DHT22;53956;52.442;13.284;2022-12-05T07:54:11;5.80;99.90
18126;DHT22;53956;52.442;13.284;2022-12-05T07:56:39;6.00;99.90
18126;DHT22;53956;52.442;13.284;2022-12-05T07:59:06;5.80;99.90
18126;DHT22;53956;52.442;13.284;2022-12-05T08:01:33;6.00;99.90
18126;DHT22;53956;52.442;13.284;2022-12-05T08:04:01;6.30;99.90
18126;DHT22;53956;52.442;13.284;2022-12-05T08:06:29;5.90;99.90
18126;DHT22;53956;52.442;13.284;2022-12-05T08:08:56;6.00;99.90
18126;DHT22;53956;52.442;13.284;2022-12-05T08:11:24;6.10;99.90
18126;DHT22;53956;52.442;13.284;2022-12-05T08:13:53;6.00;99.90
18126;DHT22;53956;52.442;13.284;2022-12-05T08:16:22;6.10;99.90
18126;DHT22;53956;52.442;13.284;2022-12-05T08:18:53;5.90;99.90
18126;DHT22;53956;52.442;13.284;2022-12-05T08:21:20;6.00;99.90
18126;DHT22;53956;52.442;13.284;2022-12-05T08:23:47;5.90;99.90
18126;DHT22;53956;52.442;13.284;2022-12-05T08:26:16;5.80;99.90
18126;DHT22;53956;52.442;13.284;2022-12-05T08:28:43;6.20;99.90
18126;DHT22;53956;52.442;13.284;2022-12-05T08:31:13;5.80;99.90
18126;DHT22;53956;52.442;13.284;2022-12-05T08:33:41;5.90;99.90
18126;DHT22;53956;52.442;13.284;2022-12-05T08:36:09;5.80;99.90
18126;DHT22;53956;52.442;13.284;2022-12-05T08:38:36;5.90;99.90
18126;DHT22;53956;52.442;13.284;2022-12-05T08:41:05;5.90;99.90
18126;DHT22;53956;52.442;13.284;2022-12-05T08:43:32;6.10;99.90
18126;DHT22;53956;52.442;13.284;2022-12-05T08:45:59;6.00;99.90
18126;DHT22;53956;52.442;13.284;2022-12-05T08:48:29;5.90;99.90
18126;DHT22;53956;52.442;13.284;2022-12-05T08:50:56;6.10;99.90
18126;DHT22;53956;52.442;13.284;2022-12-05T08:53:23;6.20;99.90
18126;DHT22;53956;52.442;13.284;2022-12-05T08:55:50;6.30;99.90
18126;DHT22;53956;52.442;13.284;2022-12-05T08:58:17;6.10;99.90
18126;DHT22;53956;52.442;13.284;2022-12-05T09:00:43;6.10;99.90
18126;DHT22;53956;52.442;13.284;2022-12-05T09:03:11;6.20;99.90
18126;DHT22;53956;52.442;13.284;2022-12-05T09:05:39;6.20;99.90
18126;DHT22;53956;52.442;13.284;2022-12-05T09:08:05;5.90;99.90
18126;DHT22;53956;52.442;13.284;2022-12-05T09:10:32;6.00;99.90
18126;DHT22;53956;52.442;13.284;2022-12-05T09:12:59;5.90;99.90
18126;DHT22;53956;52.442;13.284;2022-12-05T09:15:26;5.90;99.90
18126;DHT22;53956;52.442;13.284;2022-12-05T09:17:52;5.80;99.90
18126;DHT22;53956;52.442;13.284;2022-12-05T09:20:19;5.90;99.90
18126;DHT22;53956;52.442;13.284;2022-12-05T09:22:47;5.80;99.90
18126;DHT22;53956;52.442;13.284;2022-12-05T09:25:14;5.90;99.90
18126;DHT22;53956;52.442;13.284;2022-12-05T09:27:40;5.90;99.90
18126;DHT22;53956;52.442;13.284;2022-12-05T09:30:08;5.80;99.90
18126;DHT22;53956;52.442;13.284;2022-12-05T09:32:36;6.00;99.90
18126;DHT22;53956;52.442;13.284;2022-12-05T09:35:03;6.00;99.90
18126;DHT22;53956;52.442;13.284;2022-12-05T09:37:30;5.90;99.90
18126;DHT22;53956;52.442;13.284;2022-12-05T09:39:58;6.20;99.90
18126;DHT22;53956;52.442;13.284;2022-12-05T09:42:38;6.00;99.90
18126;DHT22;53956;52.442;13.284;2022-12-05T09:45:18;6.00;99.90
18126;DHT22;53956;52.442;13.284;2022-12-05T09:47:53;6.20;99.90
18126;DHT22;53956;52.442;13.284;2022-12-05T09:50:24;6.00;99.90
18126;DHT22;53956;52.442;13.284;2022-12-05T09:53:03;6.20;99.90
18126;DHT22;53956;52.442;13.284;2022-12-05T09:55:40;6.30;99.90
18126;DHT22;53956;52.442;13.284;2022-12-05T09:58:20;6.20;99.90
18126;DHT22;53956;52.442;13.284;2022-12-05T10:00:50;6.00;99.90
18126;DHT22;53956;52.442;13.284;2022-12-05T10:03:23;6.10;99.90
18126;DHT22;53956;52.442;13.284;2022-12-05T10:05:58;5.80;99.90
18126;DHT22;53956;52.442;13.284;2022-12-05T10:08:32;6.00;99.90
18126;DHT22;53956;52.442;13.284;2022-12-05T10:11:11;6.20;99.90
18126;DHT22;53956;52.442;13.284;2022-12-05T10:13:45;6.20;99.90
18126;DHT22;53956;52.442;13.284;2022-12-05T10:16:19;6.10;99.90
18126;DHT22;53956;52.442;13.284;2022-12-05T10:18:50;6.20;99.90
18126;DHT22;53956;52.442;13.284;2022-12-05T10:21:20;6.20;99.90
18126;DHT22;53956;52.442;13.284;2022-12-05T10:23:53;6.00;99.90
18126;DHT22;53956;52.442;13.284;2022-12-05T10:26:25;6.00;99.90
18126;DHT22;53956;52.442;13.284;2022-12-05T10:28:56;6.20;99.90
18126;DHT22;53956;52.442;13.284;2022-12-05T10:31:29;6.30;99.90
18126;DHT22;53956;52.442;13.284;2022-12-05T10:34:02;6.20;99.90
18126;DHT22;53956;52.442;13.284;2022-12-05T10:36:29;6.00;99.90
18126;DHT22;53956;52.442;13.284;2022-12-05T10:38:58;6.20;99.90
18126;DHT22;53956;52.442;13.284;2022-12-05T10:41:26;6.40;99.90
18126;DHT22;53956;52.442;13.284;2022-12-05T10:43:55;6.40;99.90
18126;DHT22;53956;52.442;13.284;2022-12-05T10:46:23;6.50;99.90
18126;DHT22;53956;52.442;13.284;2022-12-05T10:48:50;6.30;99.90
18126;DHT22;53956;52.442;13.284;2022-12-05T10:51:22;6.40;99.90
18126;DHT22;53956;52.442;13.284;2022-12-05T10:53:51;6.50;99.90
18126;DHT22;53956;52.442;13.284;2022-12-05T10:56:41;6.40;99.90
18126;DHT22;53956;52.442;13.284;2022-12-05T10:59:10;6.40;99.90
18126;DHT22;53956;52.442;13.284;2022-12-05T11:01:37;6.10;99.90
18126;DHT22;53956;52.442;13.284;2022-12-05T11:04:18;6.10;99.90
18126;DHT22;53956;52.442;13.284;2022-12-05T11:06:51;6.20;99.90
18126;DHT22;53956;52.442;13.284;2022-12-05T11:09:20;6.00;99.90
18126;DHT22;53956;52.442;13.284;2022-12-05T11:12:05;5.90;99.90
18126;DHT22;53956;52.442;13.284;2022-12-05T11:14:38;6.00;99.90
18126;DHT22;53956;52.442;13.284;2022-12-05T11:17:05;6.20;99.90
18126;DHT22;53956;52.442;13.284;2022-12-05T11:19:33;6.10;99.90
18126;DHT22;53956;52.442;13.284;2022-12-05T11:22:01;6.10;99.90
18126;DHT22;53956;52.442;13.284;2022-12-05T11:24:30;6.00;99.90
18126;DHT22;53956;52.442;13.284;2022-12-05T11:27:00;6.10;99.90
18126;DHT22;53956;52.442;13.284;2022-12-05T11:29:53;6.20;99.90
18126;DHT22;53956;52.442;13.284;2022-12-05T11:32:22;6.30;99.90
18126;DHT22;53956;52.442;13.284;2022-12-05T11:34:52;6.30;99.90
18126;DHT22;53956;52.442;13.284;2022-12-05T11:37:25;6.40;99.90
18126;DHT22;53956;52.442;13.284;2022-12-05T11:39:54;6.50;99.90
18126;DHT22;53956;52.442;13.284;2022-12-05T11:42:29;6.70;99.90
18126;DHT22;53956;52.442;13.284;2022-12-05T11:45:32;6.60;99.90
18126;DHT22;53956;52.442;13.284;2022-12-05T11:48:25;6.40;99.90
18126;DHT22;53956;52.442;13.284;2022-12-05T11:51:07;6.40;99.90
18126;DHT22;53956;52.442;13.284;2022-12-05T11:53:46;6.40;99.90
18126;DHT22;53956;52.442;13.284;2022-12-05T11:56:25;6.50;99.90
18126;DHT22;53956;52.442;13.284;2022-12-05T11:59:17;6.30;99.90
18126;DHT22;53956;52.442;13.284;2022-12-05T12:01:51;6.50;99.90
18126;DHT22;53956;52.442;13.284;2022-12-05T12:04:37;6.50;99.90
18126;DHT22;53956;52.442;13.284;2022-12-05T12:07:29;6.60;99.90
18126;DHT22;53956;52.442;13.284;2022-12-05T12:10:07;6.70;99.90
18126;DHT22;53956;52.442;13.284;2022-12-05T12:12:43;6.70;99.90
18126;DHT22;53956;52.442;13.284;2022-12-05T12:15:31;6.60;99.90
18126;DHT22;53956;52.442;13.284;2022-12-05T12:18:05;6.50;99.90
18126;DHT22;53956;52.442;13.284;2022-12-05T12:20:43;6.60;99.90
18126;DHT22;53956;52.442;13.284;2022-12-05T12:23:37;6.70;99.90
18126;DHT22;53956;52.442;13.284;2022-12-05T12:26:08;6.60;99.90
18126;DHT22;53956;52.442;13.284;2022-12-05T12:28:43;6.80;99.90
18126;DHT22;53956;52.442;13.284;2022-12-05T12:34:18;6.60;99.90
18126;DHT22;53956;52.442;13.284;2022-12-05T12:36:54;6.60;99.90
18126;DHT22;53956;52.442;13.284;2022-12-05T12:39:32;6.70;99.90
18126;DHT22;53956;52.442;13.284;2022-12-05T12:42:17;6.60;99.90
18126;DHT22;53956;52.442;13.284;2022-12-05T12:45:13;6.70;99.90
18126;DHT22;53956;52.442;13.284;2022-12-05T12:47:51;6.50;99.90
18126;DHT22;53956;52.442;13.284;2022-12-05T12:50:23;6.70;99.90
18126;DHT22;53956;52.442;13.284;2022-12-05T12:53:11;6.60;99.90
18126;DHT22;53956;52.442;13.284;2022-12-05T12:55:47;6.60;99.90
18126;DHT22;53956;52.442;13.284;2022-12-05T12:58:24;6.60;99.90
18126;DHT22;53956;52.442;13.284;2022-12-05T13:01:00;6.70;99.90
18126;DHT22;53956;52.442;13.284;2022-12-05T13:03:31;6.50;99.90
18126;DHT22;53956;52.442;13.284;2022-12-05T13:06:06;6.50;99.90
18126;DHT22;53956;52.442;13.284;2022-12-05T13:08:39;6.70;99.90
18126;DHT22;53956;52.442;13.284;2022-12-05T13:11:10;6.70;99.90
18126;DHT22;53956;52.442;13.284;2022-12-05T13:13:40;6.60;99.90
18126;DHT22;53956;52.442;13.284;2022-12-05T13:16:11;6.70;99.90
18126;DHT22;53956;52.442;13.284;2022-12-05T13:18:40;6.50;99.90
18126;DHT22;53956;52.442;13.284;2022-12-05T13:21:08;6.60;99.90
18126;DHT22;53956;52.442;13.284;2022-12-05T13:23:39;6.70;99.90
18126;DHT22;53956;52.442;13.284;2022-12-05T13:26:10;6.80;99.90
18126;DHT22;53956;52.442;13.284;2022-12-05T13:28:39;6.70;99.90
18126;DHT22;53956;52.442;13.284;2022-12-05T13:31:08;6.70;99.90
18126;DHT22;53956;52.442;13.284;2022-12-05T13:33:43;6.70;99.90
18126;DHT22;53956;52.442;13.284;2022-12-05T13:36:13;6.60;99.90
18126;DHT22;53956;52.442;13.284;2022-12-05T13:38:59;6.70;99.90
18126;DHT22;53956;52.442;13.284;2022-12-05T13:41:46;6.60;99.90
18126;DHT22;53956;52.442;13.284;2022-12-05T13:44:35;6.70;99.90
18126;DHT22;53956;52.442;13.284;2022-12-05T13:47:03;6.80;99.90
18126;DHT22;53956;52.442;13.284;2022-12-05T13:49:36;6.60;99.90
18126;DHT22;53956;52.442;13.284;2022-12-05T13:52:10;6.70;99.90
18126;DHT22;53956;52.442;13.284;2022-12-05T13:54:42;6.50;99.90
18126;DHT22;53956;52.442;13.284;2022-12-05T14:00:24;6.60;99.90
18126;DHT22;53956;52.442;13.284;2022-12-05T14:03:00;6.80;99.90
18126;DHT22;53956;52.442;13.284;2022-12-05T14:05:40;6.60;99.90
18126;DHT22;53956;52.442;13.284;2022-12-05T14:11:13;6.50;99.90
18126;DHT22;53956;52.442;13.284;2022-12-05T14:13:42;6.70;99.90
18126;DHT22;53956;52.442;13.284;2022-12-05T14:19:44;6.50;99.90
18126;DHT22;53956;52.442;13.284;2022-12-05T14:22:28;6.60;99.90
18126;DHT22;53956;52.442;13.284;2022-12-05T14:25:04;6.70;99.90
18126;DHT22;53956;52.442;13.284;2022-12-05T14:27:43;6.70;99.90
18126;DHT22;53956;52.442;13.284;2022-12-05T14:30:20;6.80;99.90
18126;DHT22;53956;52.442;13.284;2022-12-05T14:32:48;6.80;99.90
18126;DHT22;53956;52.442;13.284;2022-12-05T14:35:18;6.70;99.90
18126;DHT22;53956;52.442;13.284;2022-12-05T14:37:52;6.70;99.90
18126;DHT22;53956;52.442;13.284;2022-12-05T14:40:23;6.60;99.90
18126;DHT22;53956;52.442;13.284;2022-12-05T14:42:54;6.60;99.90
18126;DHT22;53956;52.442;13.284;2022-12-05T14:45:28;6.80;99.90
18126;DHT22;53956;52.442;13.284;2022-12-05T14:47:57;6.80;99.90
18126;DHT22;53956;52.442;13.284;2022-12-05T14:50:41;6.60;99.90
18126;DHT22;53956;52.442;13.284;2022-12-05T14:53:31;6.80;99.90
18126;DHT22;53956;52.442;13.284;2022-12-05T14:56:11;6.70;99.90
18126;DHT22;53956;52.442;13.284;2022-12-05T14:58:44;6.70;99.90
18126;DHT22;53956;52.442;13.284;2022-12-05T15:01:15;6.80;99.90
18126;DHT22;53956;52.442;13.284;2022-12-05T15:04:08;6.70;99.90
18126;DHT22;53956;52.442;13.284;2022-12-05T15:06:45;6.70;99.90
18126;DHT22;53956;52.442;13.284;2022-12-05T15:09:29;6.90;99.90
18126;DHT22;53956;52.442;13.284;2022-12-05T15:11:59;6.80;99.90
18126;DHT22;53956;52.442;13.284;2022-12-05T15:14:28;6.90;99.90
18126;DHT22;53956;52.442;13.284;2022-12-05T15:16:58;6.80;99.90
18126;DHT22;53956;52.442;13.284;2022-12-05T15:19:28;6.90;99.90
18126;DHT22;53956;52.442;13.284;2022-12-05T15:21:59;6.80;99.90
18126;DHT22;53956;52.442;13.284;2022-12-05T15:24:35;6.80;99.90
18126;DHT22;53956;52.442;13.284;2022-12-05T15:27:03;6.90;99.90
18126;DHT22;53956;52.442;13.284;2022-12-05T15:29:30;6.80;99.90
18126;DHT22;53956;52.442;13.284;2022-12-05T15:31:59;6.90;99.90
18126;DHT22;53956;52.442;13.284;2022-12-05T15:34:29;6.80;99.90
18126;DHT22;53956;52.442;13.284;2022-12-05T15:37:01;6.80;99.90
18126;DHT22;53956;52.442;13.284;2022-12-05T15:39:49;6.90;99.90
18126;DHT22;53956;52.442;13.284;2022-12-05T15:42:17;6.70;99.90
18126;DHT22;53956;52.442;13.284;2022-12-05T15:44:43;6.80;99.90
18126;DHT22;53956;52.442;13.284;2022-12-05T15:47:19;7.00;99.90
18126;DHT22;53956;52.442;13.284;2022-12-05T15:49:46;7.00;99.90
18126;DHT22;53956;52.442;13.284;2022-12-05T15:52:22;6.90;99.90
18126;DHT22;53956;52.442;13.284;2022-12-05T15:54:53;7.00;99.90
18126;DHT22;53956;52.442;13.284;2022-12-05T15:57:24;6.80;99.90
18126;DHT22;53956;52.442;13.284;2022-12-05T15:59:56;7.00;99.90
18126;DHT22;53956;52.442;13.284;2022-12-05T16:02:34;7.00;99.90
18126;DHT22;53956;52.442;13.284;2022-12-05T16:05:01;6.80;99.90
18126;DHT22;53956;52.442;13.284;2022-12-05T16:07:29;6.70;99.90
18126;DHT22;53956;52.442;13.284;2022-12-05T16:09:58;6.90;99.90
18126;DHT22;53956;52.442;13.284;2022-12-05T16:12:32;6.90;99.90
18126;DHT22;53956;52.442;13.284;2022-12-05T16:15:02;7.00;99.90